createdAt,value
2019-01-15T00:00:34.241Z,9.03
2019-01-15T00:03:01.129Z,12.67
2019-01-15T00:05:28.252Z,7.27
2019-01-15T00:07:55.129Z,10.00
2019-01-15T00:10:21.986Z,14.10
2019-01-15T00:12:48.916Z,9.50
2019-01-15T00:15:15.680Z,9.97
2019-01-15T00:17:42.819Z,12.20
2019-01-15T00:20:09.928Z,12.67
2019-01-15T00:22:49.093Z,10.27
2019-01-15T00:25:16.034Z,13.30
2019-01-15T00:27:42.792Z,11.70
2019-01-15T00:30:12.662Z,10.30
2019-01-15T00:32:39.788Z,12.90
2019-01-15T00:35:07.151Z,10.80
2019-01-15T00:37:34.380Z,11.10
2019-01-15T00:40:01.624Z,10.83
2019-01-15T00:42:28.363Z,13.87
2019-01-15T00:44:55.077Z,15.80
2019-01-15T00:47:21.905Z,14.73
2019-01-15T00:49:48.918Z,10.00
2019-01-15T00:52:15.656Z,14.37
2019-01-15T00:54:42.714Z,13.50
2019-01-15T00:57:09.361Z,13.13
2019-01-15T00:59:36.092Z,11.27
2019-01-15T01:02:02.977Z,12.77
2019-01-15T01:04:29.619Z,15.37
2019-01-15T01:06:56.453Z,12.97
2019-01-15T01:09:43.225Z,10.97
2019-01-15T01:12:10.009Z,10.23
2019-01-15T01:14:36.841Z,15.00
2019-01-15T01:17:03.940Z,11.30
2019-01-15T01:19:30.960Z,15.47
2019-01-15T01:21:58.052Z,15.47
2019-01-15T01:24:37.328Z,16.43
2019-01-15T01:27:04.285Z,12.10
2019-01-15T01:29:31.147Z,12.07
2019-01-15T01:31:58.341Z,15.43
2019-01-15T01:34:25.717Z,14.67
2019-01-15T01:36:52.454Z,11.57
2019-01-15T01:39:19.414Z,14.70
2019-01-15T01:41:46.161Z,17.03
2019-01-15T01:44:32.756Z,14.90
2019-01-15T01:46:59.485Z,14.00
2019-01-15T01:49:26.526Z,13.70
2019-01-15T01:51:53.290Z,13.67
2019-01-15T01:54:20.019Z,9.60
2019-01-15T01:56:46.858Z,15.80
2019-01-15T01:59:13.966Z,15.30
2019-01-15T02:01:41.002Z,11.27
2019-01-15T02:04:08.014Z,13.50
2019-01-15T02:06:34.990Z,10.30
2019-01-15T02:09:01.997Z,11.47
2019-01-15T02:11:28.729Z,16.80
2019-01-15T02:14:36.553Z,10.33
2019-01-15T02:17:03.381Z,13.37
2019-01-15T02:19:30.398Z,14.53
2019-01-15T02:21:57.246Z,15.07
2019-01-15T02:24:24.180Z,12.83
2019-01-15T02:27:05.981Z,14.20
2019-01-15T02:29:32.631Z,14.17
2019-01-15T02:31:59.272Z,11.90
2019-01-15T02:34:26.168Z,12.87
2019-01-15T02:36:53.165Z,11.10
2019-01-15T02:39:20.019Z,14.37
2019-01-15T02:41:46.804Z,13.60
2019-01-15T02:44:13.548Z,14.20
2019-01-15T02:46:40.968Z,11.80
2019-01-15T02:49:08.195Z,12.80
2019-01-15T02:51:34.922Z,11.67
2019-01-15T02:54:01.935Z,13.87
2019-01-15T02:56:28.810Z,15.33
2019-01-15T02:59:36.602Z,12.57
2019-01-15T03:02:03.569Z,12.30
2019-01-15T03:04:43.884Z,14.63
2019-01-15T03:07:10.921Z,13.67
2019-01-15T03:09:37.763Z,15.27
2019-01-15T03:12:04.493Z,15.60
2019-01-15T03:14:31.301Z,13.03
2019-01-15T03:16:58.136Z,12.63
2019-01-15T03:19:24.869Z,10.40
2019-01-15T03:21:51.670Z,12.03
2019-01-15T03:24:18.430Z,14.27
2019-01-15T03:26:45.172Z,9.20
2019-01-15T03:29:12.199Z,16.23
2019-01-15T03:31:39.055Z,11.17
2019-01-15T03:34:06.022Z,12.53
2019-01-15T03:39:07.905Z,12.17
2019-01-15T03:41:34.796Z,18.13
2019-01-15T03:44:01.620Z,11.13
2019-01-15T03:46:28.455Z,14.87
2019-01-15T03:48:55.239Z,16.00
2019-01-15T03:51:21.970Z,13.07
2019-01-15T03:53:48.722Z,17.60
2019-01-15T03:56:15.609Z,17.00
2019-01-15T03:58:42.338Z,17.00
2019-01-15T04:01:10.205Z,9.77
2019-01-15T04:03:37.125Z,11.23
2019-01-15T04:06:03.862Z,15.90
2019-01-15T04:08:30.888Z,14.30
2019-01-15T04:10:57.942Z,16.00
2019-01-15T04:13:24.964Z,17.70
2019-01-15T04:15:51.696Z,12.00
2019-01-15T04:18:18.784Z,14.43
2019-01-15T04:20:45.522Z,17.17
2019-01-15T04:23:12.264Z,13.83
2019-01-15T04:25:39.719Z,17.57
2019-01-15T04:28:06.552Z,17.37
2019-01-15T04:30:33.468Z,12.77
2019-01-15T04:33:00.742Z,12.93
2019-01-15T04:35:27.625Z,14.23
2019-01-15T04:37:54.368Z,10.03
2019-01-15T04:40:21.458Z,14.30
2019-01-15T04:42:48.385Z,10.47
2019-01-15T04:45:16.741Z,16.23
2019-01-15T04:47:43.602Z,14.00
2019-01-15T04:50:10.562Z,15.03
2019-01-15T04:55:26.283Z,16.60
2019-01-15T04:57:53.023Z,13.80
2019-01-15T05:00:19.998Z,14.07
2019-01-15T05:02:47.330Z,11.10
2019-01-15T05:08:22.245Z,14.33
2019-01-15T05:10:49.094Z,14.67
2019-01-15T05:13:16.103Z,13.90
2019-01-15T05:15:42.991Z,21.97
2019-01-15T05:18:09.880Z,9.60
2019-01-15T05:20:36.622Z,12.73
2019-01-15T05:23:03.719Z,16.50
2019-01-15T05:25:30.567Z,10.07
2019-01-15T05:27:57.443Z,16.27
2019-01-15T05:30:28.530Z,11.73
2019-01-15T05:33:07.518Z,11.10
2019-01-15T05:35:34.332Z,13.47
2019-01-15T05:38:01.834Z,15.23
2019-01-15T05:40:28.597Z,11.37
2019-01-15T05:42:56.102Z,13.57
2019-01-15T05:45:42.571Z,12.37
2019-01-15T05:51:11.481Z,13.40
2019-01-15T05:53:38.735Z,14.00
2019-01-15T05:56:05.642Z,12.03
2019-01-15T05:58:32.739Z,13.60
2019-01-15T06:00:59.526Z,12.80
2019-01-15T06:03:26.470Z,10.60
2019-01-15T06:05:53.386Z,12.97
2019-01-15T06:08:20.241Z,15.87
2019-01-15T06:10:47.258Z,10.90
2019-01-15T06:13:14.548Z,6.43
2019-01-15T06:15:41.291Z,9.57
2019-01-15T06:18:08.144Z,11.17
2019-01-15T06:20:35.153Z,14.63
2019-01-15T06:23:02.388Z,10.60
2019-01-15T06:25:29.431Z,10.40
2019-01-15T06:27:56.331Z,11.97
2019-01-15T06:30:23.302Z,16.47
2019-01-15T06:32:50.158Z,9.47
2019-01-15T06:35:30.162Z,8.03
2019-01-15T06:37:57.018Z,10.97
2019-01-15T06:40:24.022Z,15.07
2019-01-15T06:42:50.936Z,6.20
2019-01-15T06:45:19.875Z,10.27
2019-01-15T06:47:46.725Z,10.57
2019-01-15T06:50:13.987Z,9.87
2019-01-15T06:52:40.845Z,8.13
2019-01-15T06:55:09.889Z,12.67
2019-01-15T06:57:36.785Z,7.50
2019-01-15T07:00:06.952Z,11.17
2019-01-15T07:02:34.164Z,8.53
2019-01-15T07:07:34.517Z,9.20
2019-01-15T07:10:01.360Z,11.27
2019-01-15T07:12:28.283Z,12.10
2019-01-15T07:14:55.036Z,9.73
2019-01-15T07:17:22.166Z,9.07
2019-01-15T07:19:49.101Z,7.77
2019-01-15T07:22:15.955Z,9.73
2019-01-15T07:24:42.809Z,9.73
2019-01-15T07:27:09.650Z,19.80
2019-01-15T07:29:36.530Z,6.57
2019-01-15T07:32:03.310Z,6.97
2019-01-15T07:34:30.115Z,9.07
2019-01-15T07:36:56.906Z,12.47
2019-01-15T07:39:43.359Z,10.37
2019-01-15T07:42:10.468Z,10.13
2019-01-15T07:44:37.322Z,7.50
2019-01-15T07:47:04.231Z,6.83
2019-01-15T07:49:31.079Z,8.10
2019-01-15T07:51:57.932Z,9.53
2019-01-15T07:54:25.288Z,8.23
2019-01-15T07:56:52.125Z,7.17
2019-01-15T07:59:19.061Z,9.90
2019-01-15T08:04:20.694Z,8.20
2019-01-15T08:06:47.440Z,8.03
2019-01-15T08:09:14.279Z,6.87
2019-01-15T08:11:41.134Z,8.80
2019-01-15T08:14:11.964Z,9.13
2019-01-15T08:16:37.055Z,8.47
2019-01-15T08:19:04.317Z,7.07
2019-01-15T08:21:31.154Z,10.57
2019-01-15T08:23:57.898Z,9.80
2019-01-15T08:26:24.808Z,7.17
2019-01-15T08:28:51.547Z,9.37
2019-01-15T08:31:18.449Z,10.10
2019-01-15T08:33:45.471Z,7.10
2019-01-15T08:36:12.318Z,5.63
2019-01-15T08:38:39.448Z,7.80
2019-01-15T08:41:06.239Z,11.20
2019-01-15T08:43:33.102Z,5.77
2019-01-15T08:46:00.269Z,6.43
2019-01-15T08:48:29.445Z,7.93
2019-01-15T08:50:56.299Z,6.80
2019-01-15T08:53:24.202Z,8.13
2019-01-15T08:58:28.197Z,6.77
2019-01-15T09:00:54.950Z,7.90
2019-01-15T09:03:22.194Z,7.37
2019-01-15T09:05:49.631Z,8.73
2019-01-15T09:08:16.967Z,7.00
2019-01-15T09:10:44.091Z,10.27
2019-01-15T09:13:11.119Z,6.10
2019-01-15T09:15:40.224Z,7.03
2019-01-15T09:18:07.392Z,7.93
2019-01-15T09:20:34.294Z,6.30
2019-01-15T09:23:01.319Z,6.67
2019-01-15T09:25:28.347Z,8.37
2019-01-15T09:27:55.139Z,7.77
2019-01-15T09:30:21.998Z,10.30
2019-01-15T09:32:48.860Z,5.33
2019-01-15T09:35:15.818Z,8.20
2019-01-15T09:40:31.074Z,7.23
2019-01-15T09:42:57.942Z,9.07
2019-01-15T09:45:24.795Z,9.80
2019-01-15T09:48:11.412Z,7.50
2019-01-15T09:50:38.374Z,5.93
2019-01-15T09:53:05.666Z,9.47
2019-01-15T09:55:32.778Z,5.83
2019-01-15T09:57:59.637Z,7.00
2019-01-15T10:00:26.500Z,8.43
2019-01-15T10:02:53.475Z,9.80
2019-01-15T10:05:20.331Z,8.63
2019-01-15T10:07:47.094Z,12.80
2019-01-15T10:10:14.546Z,5.60
2019-01-15T10:12:41.404Z,9.77
2019-01-15T10:15:10.013Z,8.63
2019-01-15T10:17:37.322Z,11.03
2019-01-15T10:20:05.028Z,11.33
2019-01-15T10:22:32.029Z,11.53
2019-01-15T10:24:59.166Z,10.67
2019-01-15T10:27:26.539Z,9.03
2019-01-15T10:33:06.251Z,10.60
2019-01-15T10:35:53.339Z,10.53
2019-01-15T10:38:20.754Z,8.40
2019-01-15T10:41:00.913Z,10.10
2019-01-15T10:43:29.923Z,7.37
2019-01-15T10:45:56.810Z,10.27
2019-01-15T10:48:23.659Z,7.33
2019-01-15T10:50:50.965Z,8.53
2019-01-15T10:53:17.833Z,9.97
2019-01-15T10:55:44.691Z,10.90
2019-01-15T10:58:17.565Z,11.23
2019-01-15T11:00:40.670Z,10.10
2019-01-15T11:03:07.824Z,6.60
2019-01-15T11:05:34.708Z,8.97
2019-01-15T11:08:01.545Z,5.77
2019-01-15T11:10:28.288Z,8.90
2019-01-15T11:12:55.090Z,8.43
2019-01-15T11:15:21.835Z,8.60
2019-01-15T11:17:48.566Z,9.00
2019-01-15T11:20:15.676Z,8.40
2019-01-15T11:22:42.510Z,11.27
2019-01-15T11:25:09.354Z,9.13
2019-01-15T11:27:36.211Z,11.97
2019-01-15T11:30:44.769Z,10.90
2019-01-15T11:33:11.616Z,8.90
2019-01-15T11:35:38.508Z,10.20
2019-01-15T11:38:05.629Z,8.57
2019-01-15T11:40:32.812Z,8.30
2019-01-15T11:43:12.469Z,8.63
2019-01-15T11:45:39.334Z,13.70
2019-01-15T11:48:06.179Z,12.37
2019-01-15T11:50:33.014Z,10.30
2019-01-15T11:52:59.887Z,14.33
2019-01-15T11:55:26.718Z,11.43
2019-01-15T11:57:53.633Z,13.47
2019-01-15T12:00:40.832Z,13.00
2019-01-15T12:03:14.931Z,13.40
2019-01-15T12:06:01.453Z,13.23
2019-01-15T12:08:47.925Z,11.73
2019-01-15T12:11:54.017Z,11.93
2019-01-15T12:14:40.514Z,11.70
2019-01-15T12:17:27.164Z,14.10
2019-01-15T12:20:33.248Z,10.27
2019-01-15T12:23:20.080Z,14.17
2019-01-15T12:26:06.454Z,15.83
2019-01-15T12:28:53.052Z,12.87
2019-01-15T12:31:39.545Z,14.13
2019-01-15T12:34:26.424Z,13.90
2019-01-15T12:37:07.558Z,14.87
2019-01-15T12:39:54.166Z,13.70
2019-01-15T12:42:40.646Z,13.37
2019-01-15T12:45:39.783Z,14.30
2019-01-15T12:48:26.310Z,13.90
2019-01-15T12:51:12.856Z,13.90
2019-01-15T12:53:59.261Z,15.83
2019-01-15T12:56:46.095Z,18.27
2019-01-15T12:59:32.561Z,14.40
2019-01-15T13:02:19.083Z,16.67
2019-01-15T13:05:05.609Z,15.63
2019-01-15T13:07:52.586Z,20.10
2019-01-15T13:10:39.397Z,19.93
2019-01-15T13:13:26.206Z,19.93
2019-01-15T13:16:12.592Z,22.13
2019-01-15T13:18:59.419Z,17.80
2019-01-15T13:21:44.017Z,18.23
2019-01-15T13:24:30.946Z,21.63
2019-01-15T13:27:17.432Z,20.80
2019-01-15T13:30:04.106Z,20.23
2019-01-15T13:32:50.482Z,22.27
2019-01-15T13:35:37.221Z,21.80
2019-01-15T13:38:18.274Z,21.67
2019-01-15T13:41:05.130Z,20.83
2019-01-15T13:43:51.609Z,21.17
2019-01-15T13:46:39.572Z,21.53
2019-01-15T13:49:26.073Z,23.07
2019-01-15T13:55:08.543Z,28.80
2019-01-15T13:57:54.959Z,23.93
2019-01-15T14:00:41.687Z,25.83
2019-01-15T14:03:28.155Z,24.53
2019-01-15T14:06:14.785Z,25.13
2019-01-15T14:09:01.868Z,25.00
2019-01-15T14:11:48.476Z,26.10
2019-01-15T14:14:34.880Z,28.63
2019-01-15T14:17:21.819Z,29.73
2019-01-15T14:20:08.516Z,27.83
2019-01-15T14:22:55.340Z,28.67
2019-01-15T14:25:41.712Z,33.87
2019-01-15T14:28:28.308Z,29.87
2019-01-15T14:31:14.857Z,30.27
2019-01-15T14:34:01.732Z,30.50
2019-01-15T14:36:48.480Z,29.37
2019-01-15T14:39:34.983Z,28.90
2019-01-15T14:42:22.168Z,30.30
2019-01-15T14:45:08.753Z,27.43
2019-01-15T14:47:55.445Z,31.57
2019-01-15T14:50:42.571Z,32.33
2019-01-15T14:53:29.046Z,28.87
2019-01-15T14:56:04.835Z,32.17
2019-01-15T14:58:52.954Z,34.80
2019-01-15T15:01:40.165Z,30.77
2019-01-15T15:04:28.683Z,31.27
2019-01-15T15:07:15.430Z,31.07
2019-01-15T15:10:02.691Z,31.43
2019-01-15T15:12:50.189Z,32.87
2019-01-15T15:15:37.593Z,33.20
2019-01-15T15:18:19.327Z,34.53
2019-01-15T15:21:06.883Z,36.77
2019-01-15T15:23:45.114Z,30.07
2019-01-15T15:26:33.200Z,35.33
2019-01-15T15:29:20.842Z,30.53
2019-01-15T15:32:08.537Z,32.43
2019-01-15T15:34:56.561Z,31.60
2019-01-15T15:37:42.903Z,31.80
2019-01-15T15:40:21.601Z,30.83
2019-01-15T15:43:09.162Z,27.00
2019-01-15T15:45:55.769Z,31.03
2019-01-15T15:48:43.635Z,29.63
2019-01-15T15:51:31.336Z,29.27
2019-01-15T15:54:19.076Z,31.80
2019-01-15T15:57:06.250Z,32.20
2019-01-15T15:59:53.740Z,35.17
2019-01-15T16:02:31.027Z,33.83
2019-01-15T16:05:18.220Z,38.53
2019-01-15T16:08:06.052Z,35.60
2019-01-15T16:10:52.530Z,34.77
2019-01-15T16:13:39.063Z,37.30
2019-01-15T16:16:18.721Z,38.70
2019-01-15T16:19:03.336Z,33.13
2019-01-15T16:21:42.519Z,34.93
2019-01-15T16:24:29.222Z,39.27
2019-01-15T16:27:15.718Z,34.13
2019-01-15T16:30:02.269Z,39.03
2019-01-15T16:32:48.753Z,31.47
2019-01-15T16:35:35.272Z,36.07
2019-01-15T16:38:22.046Z,31.90
2019-01-15T16:41:08.513Z,29.97
2019-01-15T16:43:55.262Z,32.57
2019-01-15T16:46:41.782Z,29.30
2019-01-15T16:49:28.328Z,33.57
2019-01-15T16:52:14.785Z,30.97
2019-01-15T16:55:01.290Z,27.97
2019-01-15T16:57:48.007Z,26.40
2019-01-15T17:00:57.359Z,25.73
2019-01-15T17:03:44.083Z,31.17
2019-01-15T17:06:30.459Z,25.80
2019-01-15T17:09:17.420Z,26.30
2019-01-15T17:12:03.794Z,24.50
2019-01-15T17:14:50.407Z,25.13
2019-01-15T17:17:36.783Z,22.87
2019-01-15T17:20:24.659Z,21.77
2019-01-15T17:23:11.240Z,23.93
2019-01-15T17:25:47.465Z,23.53
2019-01-15T17:28:33.950Z,24.87
2019-01-15T17:31:20.398Z,25.87
2019-01-15T17:34:06.879Z,25.87
2019-01-15T17:36:53.851Z,24.60
2019-01-15T17:39:40.619Z,23.73
2019-01-15T17:42:27.206Z,24.53
2019-01-15T17:45:13.581Z,27.67
2019-01-15T17:48:00.030Z,19.63
2019-01-15T17:50:46.697Z,25.30
2019-01-15T17:53:33.152Z,18.17
2019-01-15T17:56:20.023Z,23.77
2019-01-15T17:59:06.698Z,21.87
2019-01-15T18:01:47.728Z,20.00
2019-01-15T18:04:34.333Z,19.97
2019-01-15T18:07:20.839Z,17.50
2019-01-15T18:10:07.847Z,20.87
2019-01-15T18:12:45.927Z,20.67
2019-01-15T18:15:32.616Z,20.07
2019-01-15T18:18:18.993Z,16.90
2019-01-15T18:21:05.432Z,18.33
2019-01-15T18:23:51.954Z,18.93
2019-01-15T18:26:38.643Z,18.20
2019-01-15T18:29:25.544Z,18.80
2019-01-15T18:32:12.075Z,19.67
2019-01-15T18:34:58.746Z,18.57
2019-01-15T18:37:45.897Z,20.07
2019-01-15T18:40:32.288Z,18.43
2019-01-15T18:43:18.812Z,19.50
2019-01-15T18:46:05.884Z,16.47
2019-01-15T18:48:52.325Z,16.10
2019-01-15T18:51:49.573Z,16.73
2019-01-15T18:54:36.723Z,18.70
2019-01-15T18:57:23.521Z,17.93
2019-01-15T19:00:09.944Z,18.60
2019-01-15T19:02:56.419Z,19.50
2019-01-15T19:05:43.706Z,17.07
2019-01-15T19:08:30.728Z,17.83
2019-01-15T19:11:17.618Z,16.70
2019-01-15T19:14:04.250Z,20.17
2019-01-15T19:16:50.861Z,16.73
2019-01-15T19:19:37.240Z,19.67
2019-01-15T19:22:23.969Z,22.17
2019-01-15T19:25:10.624Z,21.97
2019-01-15T19:27:57.118Z,23.23
2019-01-15T19:30:43.496Z,21.17
2019-01-15T19:33:30.377Z,24.27
2019-01-15T19:36:17.369Z,22.17
2019-01-15T19:39:05.226Z,19.83
2019-01-15T19:41:52.679Z,24.17
2019-01-15T19:44:39.312Z,20.83
2019-01-15T19:47:17.173Z,25.97
2019-01-15T19:50:03.779Z,23.50
2019-01-15T19:52:43.847Z,26.33
2019-01-15T19:55:30.501Z,26.43
2019-01-15T19:58:17.045Z,26.70
2019-01-15T20:01:03.494Z,25.57
2019-01-15T20:03:50.338Z,29.17
2019-01-15T20:06:24.031Z,31.10
2019-01-15T20:09:10.668Z,28.43
2019-01-15T20:11:57.461Z,24.77
2019-01-15T20:14:44.490Z,28.53
2019-01-15T20:17:30.970Z,28.07
2019-01-15T20:20:17.594Z,30.53
2019-01-15T20:23:04.192Z,27.10
2019-01-15T20:25:50.855Z,24.43
2019-01-15T20:28:37.332Z,26.37
2019-01-15T20:31:22.786Z,23.73
2019-01-15T20:34:09.231Z,23.80
2019-01-15T20:36:57.495Z,23.33
2019-01-15T20:39:44.026Z,24.20
2019-01-15T20:42:30.452Z,25.23
2019-01-15T20:45:16.883Z,27.37
2019-01-15T20:48:03.643Z,27.70
2019-01-15T20:50:40.574Z,29.00
2019-01-15T20:53:26.993Z,25.70
2019-01-15T20:56:13.469Z,28.63
2019-01-15T20:58:59.980Z,25.17
2019-01-15T21:01:46.385Z,25.83
2019-01-15T21:04:33.011Z,22.10
2019-01-15T21:07:19.455Z,21.30
2019-01-15T21:09:56.242Z,21.07
2019-01-15T21:12:43.727Z,24.23
2019-01-15T21:15:54.162Z,21.40
2019-01-15T21:18:40.675Z,20.17
2019-01-15T21:21:27.445Z,21.47
2019-01-15T21:24:14.303Z,21.27
2019-01-15T21:27:00.953Z,17.97
2019-01-15T21:29:38.459Z,21.50
2019-01-15T21:32:24.819Z,18.73
2019-01-15T21:35:11.325Z,19.33
2019-01-15T21:37:57.686Z,18.30
2019-01-15T21:40:44.202Z,17.93
2019-01-15T21:43:30.560Z,20.27
2019-01-15T21:46:17.589Z,20.33
2019-01-15T21:49:04.249Z,19.83
2019-01-15T21:51:50.786Z,22.03
2019-01-15T21:54:38.287Z,18.47
2019-01-15T21:57:24.806Z,17.40
2019-01-15T22:00:11.156Z,20.23
2019-01-15T22:02:57.919Z,17.50
2019-01-15T22:05:35.604Z,21.17
2019-01-15T22:08:22.574Z,19.67
2019-01-15T22:11:08.933Z,22.50
2019-01-15T22:13:46.067Z,21.33
2019-01-15T22:16:32.430Z,18.57
2019-01-15T22:19:19.308Z,19.87
2019-01-15T22:22:05.782Z,19.70
2019-01-15T22:24:52.286Z,21.60
2019-01-15T22:27:28.790Z,20.20
2019-01-15T22:30:15.465Z,23.33
2019-01-15T22:33:01.842Z,21.53
2019-01-15T22:35:48.641Z,22.47
2019-01-15T22:38:35.113Z,26.13
2019-01-15T22:41:21.808Z,23.93
2019-01-15T22:44:08.308Z,25.97
2019-01-15T22:46:54.807Z,24.57
2019-01-15T22:49:41.159Z,27.83
2019-01-15T22:52:27.967Z,24.83
2019-01-15T22:55:14.666Z,23.80
2019-01-15T22:58:01.117Z,26.27
2019-01-15T23:00:51.547Z,28.70
2019-01-15T23:03:38.041Z,23.80
2019-01-15T23:06:24.507Z,28.67
2019-01-15T23:08:59.570Z,24.73
2019-01-15T23:11:46.002Z,24.60
2019-01-15T23:14:32.808Z,25.10
2019-01-15T23:17:19.261Z,25.23
2019-01-15T23:20:06.090Z,21.73
2019-01-15T23:22:46.038Z,25.57
2019-01-15T23:25:53.922Z,23.00
2019-01-15T23:28:40.284Z,22.50
2019-01-15T23:31:26.812Z,24.70
2019-01-15T23:34:02.177Z,22.33
2019-01-15T23:36:48.951Z,23.33
2019-01-15T23:39:35.309Z,22.77
2019-01-15T23:42:21.844Z,25.80
2019-01-15T23:45:08.299Z,20.53
2019-01-15T23:47:54.801Z,21.63
2019-01-15T23:50:41.439Z,20.57
2019-01-15T23:53:27.920Z,21.87
2019-01-15T23:56:14.731Z,22.30
2019-01-15T23:59:01.410Z,18.10
